sensor_id;sensor_type;location;lat;lon;timestamp;temperature;humidity
18291;DHT22;9271;48.590;8.866;2023-05-07T00:01:45;15.80;97.70
18291;DHT22;9271;48.590;8.866;2023-05-07T00:04:13;15.80;97.50
18291;DHT22;9271;48.590;8.866;2023-05-07T00:06:40;15.80;97.60
18291;DHT22;9271;48.590;8.866;2023-05-07T00:09:06;15.70;97.80
18291;DHT22;9271;48.590;8.866;2023-05-07T00:11:34;15.70;97.70
18291;DHT22;9271;48.590;8.866;2023-05-07T00:14:00;15.60;98.00
18291;DHT22;9271;48.590;8.866;2023-05-07T00:16:27;15.50;98.30
18291;DHT22;9271;48.590;8.866;2023-05-07T00:18:54;15.60;98.20
18291;DHT22;9271;48.590;8.866;2023-05-07T00:21:22;15.60;98.20
18291;DHT22;9271;48.590;8.866;2023-05-07T00:23:51;15.70;98.10
18291;DHT22;9271;48.590;8.866;2023-05-07T00:26:18;15.70;98.20
18291;DHT22;9271;48.590;8.866;2023-05-07T00:28:46;15.70;98.00
18291;DHT22;9271;48.590;8.866;2023-05-07T00:31:12;15.70;98.20
18291;DHT22;9271;48.590;8.866;2023-05-07T00:33:39;15.60;98.40
18291;DHT22;9271;48.590;8.866;2023-05-07T00:36:06;15.60;98.50
18291;DHT22;9271;48.590;8.866;2023-05-07T00:38:34;15.60;98.50
18291;DHT22;9271;48.590;8.866;2023-05-07T00:41:01;15.60;98.40
18291;DHT22;9271;48.590;8.866;2023-05-07T00:43:28;15.50;98.70
18291;DHT22;9271;48.590;8.866;2023-05-07T00:45:55;15.50;98.70
18291;DHT22;9271;48.590;8.866;2023-05-07T00:48:22;15.60;98.70
18291;DHT22;9271;48.590;8.866;2023-05-07T00:50:49;15.50;98.80
18291;DHT22;9271;48.590;8.866;2023-05-07T00:53:16;15.60;98.80
18291;DHT22;9271;48.590;8.866;2023-05-07T00:55:45;15.50;98.80
18291;DHT22;9271;48.590;8.866;2023-05-07T00:58:11;15.50;98.80
18291;DHT22;9271;48.590;8.866;2023-05-07T01:00:38;15.50;98.90
18291;DHT22;9271;48.590;8.866;2023-05-07T01:03:06;15.60;98.80
18291;DHT22;9271;48.590;8.866;2023-05-07T01:05:32;15.50;98.90
18291;DHT22;9271;48.590;8.866;2023-05-07T01:07:59;15.50;99.10
18291;DHT22;9271;48.590;8.866;2023-05-07T01:10:27;15.40;99.30
18291;DHT22;9271;48.590;8.866;2023-05-07T01:12:58;15.40;99.20
18291;DHT22;9271;48.590;8.866;2023-05-07T01:15:25;15.40;99.30
18291;DHT22;9271;48.590;8.866;2023-05-07T01:17:52;15.40;99.50
18291;DHT22;9271;48.590;8.866;2023-05-07T01:20:19;15.40;99.20
18291;DHT22;9271;48.590;8.866;2023-05-07T01:22:47;15.30;99.50
18291;DHT22;9271;48.590;8.866;2023-05-07T01:25:14;15.30;99.50
18291;DHT22;9271;48.590;8.866;2023-05-07T01:27:41;15.40;99.50
18291;DHT22;9271;48.590;8.866;2023-05-07T01:30:08;15.40;99.50
18291;DHT22;9271;48.590;8.866;2023-05-07T01:32:39;15.50;99.50
18291;DHT22;9271;48.590;8.866;2023-05-07T01:35:10;15.40;99.60
18291;DHT22;9271;48.590;8.866;2023-05-07T01:37:38;15.40;99.50
18291;DHT22;9271;48.590;8.866;2023-05-07T01:40:07;15.40;99.60
18291;DHT22;9271;48.590;8.866;2023-05-07T01:42:35;15.40;99.50
18291;DHT22;9271;48.590;8.866;2023-05-07T01:45:02;15.40;99.40
18291;DHT22;9271;48.590;8.866;2023-05-07T01:47:30;15.30;99.70
18291;DHT22;9271;48.590;8.866;2023-05-07T01:49:57;15.30;99.90
18291;DHT22;9271;48.590;8.866;2023-05-07T01:52:24;15.20;99.90
18291;DHT22;9271;48.590;8.866;2023-05-07T01:54:51;15.20;99.90
18291;DHT22;9271;48.590;8.866;2023-05-07T01:57:19;15.10;99.90
18291;DHT22;9271;48.590;8.866;2023-05-07T01:59:46;15.00;99.90
18291;DHT22;9271;48.590;8.866;2023-05-07T02:02:12;15.00;99.90
18291;DHT22;9271;48.590;8.866;2023-05-07T02:04:39;15.00;99.90
18291;DHT22;9271;48.590;8.866;2023-05-07T02:07:06;15.00;99.90
18291;DHT22;9271;48.590;8.866;2023-05-07T02:09:33;15.00;99.90
18291;DHT22;9271;48.590;8.866;2023-05-07T02:11:59;15.00;99.90
18291;DHT22;9271;48.590;8.866;2023-05-07T02:14:28;15.00;99.90
18291;DHT22;9271;48.590;8.866;2023-05-07T02:16:54;14.80;99.90
18291;DHT22;9271;48.590;8.866;2023-05-07T02:19:21;14.90;99.90
18291;DHT22;9271;48.590;8.866;2023-05-07T02:21:48;14.90;99.90
18291;DHT22;9271;48.590;8.866;2023-05-07T02:24:15;14.70;99.90
18291;DHT22;9271;48.590;8.866;2023-05-07T02:26:41;14.80;99.90
18291;DHT22;9271;48.590;8.866;2023-05-07T02:29:08;14.70;99.90
18291;DHT22;9271;48.590;8.866;2023-05-07T02:31:36;14.80;99.90
18291;DHT22;9271;48.590;8.866;2023-05-07T02:34:03;14.70;99.90
18291;DHT22;9271;48.590;8.866;2023-05-07T02:36:29;14.70;99.90
18291;DHT22;9271;48.590;8.866;2023-05-07T02:38:56;14.70;99.90
18291;DHT22;9271;48.590;8.866;2023-05-07T02:41:23;14.60;99.90
18291;DHT22;9271;48.590;8.866;2023-05-07T02:43:50;14.50;99.90
18291;DHT22;9271;48.590;8.866;2023-05-07T02:46:16;14.40;99.90
18291;DHT22;9271;48.590;8.866;2023-05-07T02:48:44;14.40;99.90
18291;DHT22;9271;48.590;8.866;2023-05-07T02:51:11;14.40;99.90
18291;DHT22;9271;48.590;8.866;2023-05-07T02:53:38;14.30;99.90
18291;DHT22;9271;48.590;8.866;2023-05-07T02:56:05;14.30;99.90
18291;DHT22;9271;48.590;8.866;2023-05-07T02:58:32;14.30;99.90
18291;DHT22;9271;48.590;8.866;2023-05-07T03:00:59;14.20;99.90
18291;DHT22;9271;48.590;8.866;2023-05-07T03:03:25;14.30;99.90
18291;DHT22;9271;48.590;8.866;2023-05-07T03:05:53;14.30;99.90
18291;DHT22;9271;48.590;8.866;2023-05-07T03:08:21;14.20;99.90
18291;DHT22;9271;48.590;8.866;2023-05-07T03:10:48;14.10;99.90
18291;DHT22;9271;48.590;8.866;2023-05-07T03:13:14;14.00;99.90
18291;DHT22;9271;48.590;8.866;2023-05-07T03:15:41;14.00;99.90
18291;DHT22;9271;48.590;8.866;2023-05-07T03:18:08;14.00;99.90
18291;DHT22;9271;48.590;8.866;2023-05-07T03:20:34;13.90;99.90
18291;DHT22;9271;48.590;8.866;2023-05-07T03:23:03;14.00;99.90
18291;DHT22;9271;48.590;8.866;2023-05-07T03:25:30;14.00;99.90
18291;DHT22;9271;48.590;8.866;2023-05-07T03:27:56;13.90;99.90
18291;DHT22;9271;48.590;8.866;2023-05-07T03:30:23;14.00;99.90
18291;DHT22;9271;48.590;8.866;2023-05-07T03:32:50;14.00;99.90
18291;DHT22;9271;48.590;8.866;2023-05-07T03:35:17;14.00;99.90
18291;DHT22;9271;48.590;8.866;2023-05-07T03:37:43;13.90;99.90
18291;DHT22;9271;48.590;8.866;2023-05-07T03:40:12;13.90;99.90
18291;DHT22;9271;48.590;8.866;2023-05-07T03:42:38;13.90;99.90
18291;DHT22;9271;48.590;8.866;2023-05-07T03:45:06;13.90;99.90
18291;DHT22;9271;48.590;8.866;2023-05-07T03:47:33;13.90;99.90
18291;DHT22;9271;48.590;8.866;2023-05-07T03:50:00;13.90;99.90
18291;DHT22;9271;48.590;8.866;2023-05-07T03:52:27;13.80;99.90
18291;DHT22;9271;48.590;8.866;2023-05-07T03:54:53;13.80;99.90
18291;DHT22;9271;48.590;8.866;2023-05-07T03:57:21;13.70;99.90
18291;DHT22;9271;48.590;8.866;2023-05-07T03:59:48;13.70;99.90
18291;DHT22;9271;48.590;8.866;2023-05-07T04:02:15;13.70;99.90
18291;DHT22;9271;48.590;8.866;2023-05-07T04:04:41;13.70;99.90
18291;DHT22;9271;48.590;8.866;2023-05-07T04:07:08;13.90;99.90
18291;DHT22;9271;48.590;8.866;2023-05-07T04:09:35;13.80;99.90
18291;DHT22;9271;48.590;8.866;2023-05-07T04:12:02;13.80;99.90
18291;DHT22;9271;48.590;8.866;2023-05-07T04:14:30;13.70;99.90
18291;DHT22;9271;48.590;8.866;2023-05-07T04:16:57;13.70;99.90
18291;DHT22;9271;48.590;8.866;2023-05-07T04:19:24;13.80;99.90
18291;DHT22;9271;48.590;8.866;2023-05-07T04:21:51;13.80;99.90
18291;DHT22;9271;48.590;8.866;2023-05-07T04:24:17;13.80;99.90
18291;DHT22;9271;48.590;8.866;2023-05-07T04:26:44;13.80;99.90
18291;DHT22;9271;48.590;8.866;2023-05-07T04:29:11;13.90;99.90
18291;DHT22;9271;48.590;8.866;2023-05-07T04:31:39;13.80;99.90
18291;DHT22;9271;48.590;8.866;2023-05-07T04:34:05;13.90;99.90
18291;DHT22;9271;48.590;8.866;2023-05-07T04:36:32;14.00;99.90
18291;DHT22;9271;48.590;8.866;2023-05-07T04:38:59;14.20;99.90
18291;DHT22;9271;48.590;8.866;2023-05-07T04:41:26;14.30;99.90
18291;DHT22;9271;48.590;8.866;2023-05-07T04:43:53;14.20;99.90
18291;DHT22;9271;48.590;8.866;2023-05-07T04:46:20;14.20;99.90
18291;DHT22;9271;48.590;8.866;2023-05-07T04:48:48;14.30;99.90
18291;DHT22;9271;48.590;8.866;2023-05-07T04:51:14;14.50;99.90
18291;DHT22;9271;48.590;8.866;2023-05-07T04:53:41;14.70;99.90
18291;DHT22;9271;48.590;8.866;2023-05-07T04:56:08;14.80;99.90
18291;DHT22;9271;48.590;8.866;2023-05-07T04:58:35;14.90;99.90
18291;DHT22;9271;48.590;8.866;2023-05-07T05:01:02;14.90;99.90
18291;DHT22;9271;48.590;8.866;2023-05-07T05:03:28;15.10;99.90
18291;DHT22;9271;48.590;8.866;2023-05-07T05:05:57;15.30;99.90
18291;DHT22;9271;48.590;8.866;2023-05-07T05:08:24;15.50;99.90
18291;DHT22;9271;48.590;8.866;2023-05-07T05:10:52;15.60;99.90
18291;DHT22;9271;48.590;8.866;2023-05-07T05:13:18;15.60;99.90
18291;DHT22;9271;48.590;8.866;2023-05-07T05:15:45;15.60;99.90
18291;DHT22;9271;48.590;8.866;2023-05-07T05:18:12;15.80;99.90
18291;DHT22;9271;48.590;8.866;2023-05-07T05:20:39;16.20;99.70
18291;DHT22;9271;48.590;8.866;2023-05-07T05:23:07;16.50;99.10
18291;DHT22;9271;48.590;8.866;2023-05-07T05:25:34;16.80;98.80
18291;DHT22;9271;48.590;8.866;2023-05-07T05:28:01;17.00;98.60
18291;DHT22;9271;48.590;8.866;2023-05-07T05:30:28;17.10;98.20
18291;DHT22;9271;48.590;8.866;2023-05-07T05:32:54;17.30;97.90
18291;DHT22;9271;48.590;8.866;2023-05-07T05:35:21;17.60;97.40
18291;DHT22;9271;48.590;8.866;2023-05-07T05:37:48;18.00;97.30
18291;DHT22;9271;48.590;8.866;2023-05-07T05:40:16;17.90;97.00
18291;DHT22;9271;48.590;8.866;2023-05-07T05:42:43;17.70;97.30
18291;DHT22;9271;48.590;8.866;2023-05-07T05:45:10;17.70;97.40
18291;DHT22;9271;48.590;8.866;2023-05-07T05:47:37;17.80;97.30
18291;DHT22;9271;48.590;8.866;2023-05-07T05:50:06;17.80;97.30
18291;DHT22;9271;48.590;8.866;2023-05-07T05:52:33;18.10;97.50
18291;DHT22;9271;48.590;8.866;2023-05-07T05:54:59;18.30;96.90
18291;DHT22;9271;48.590;8.866;2023-05-07T05:57:27;18.20;97.10
18291;DHT22;9271;48.590;8.866;2023-05-07T05:59:54;18.30;96.90
18291;DHT22;9271;48.590;8.866;2023-05-07T06:02:21;18.50;96.70
18291;DHT22;9271;48.590;8.866;2023-05-07T06:04:48;18.70;96.60
18291;DHT22;9271;48.590;8.866;2023-05-07T06:07:14;18.70;96.30
18291;DHT22;9271;48.590;8.866;2023-05-07T06:09:41;18.70;96.00
18291;DHT22;9271;48.590;8.866;2023-05-07T06:12:08;18.40;96.20
18291;DHT22;9271;48.590;8.866;2023-05-07T06:14:36;18.30;96.60
18291;DHT22;9271;48.590;8.866;2023-05-07T06:17:02;18.20;97.00
18291;DHT22;9271;48.590;8.866;2023-05-07T06:19:29;18.70;96.30
18291;DHT22;9271;48.590;8.866;2023-05-07T06:21:56;19.00;95.60
18291;DHT22;9271;48.590;8.866;2023-05-07T06:24:23;19.30;95.60
18291;DHT22;9271;48.590;8.866;2023-05-07T06:26:50;19.50;95.60
18291;DHT22;9271;48.590;8.866;2023-05-07T06:29:17;19.50;94.90
18291;DHT22;9271;48.590;8.866;2023-05-07T06:31:45;19.70;95.00
18291;DHT22;9271;48.590;8.866;2023-05-07T06:34:11;19.50;95.00
18291;DHT22;9271;48.590;8.866;2023-05-07T06:36:40;19.50;95.20
18291;DHT22;9271;48.590;8.866;2023-05-07T06:39:07;19.60;94.60
18291;DHT22;9271;48.590;8.866;2023-05-07T06:41:33;19.60;94.90
18291;DHT22;9271;48.590;8.866;2023-05-07T06:44:01;19.50;94.70
18291;DHT22;9271;48.590;8.866;2023-05-07T06:46:28;19.60;95.00
18291;DHT22;9271;48.590;8.866;2023-05-07T06:48:56;19.70;94.80
18291;DHT22;9271;48.590;8.866;2023-05-07T06:51:23;19.50;94.70
18291;DHT22;9271;48.590;8.866;2023-05-07T06:53:50;19.50;94.60
18291;DHT22;9271;48.590;8.866;2023-05-07T06:56:17;19.30;95.70
18291;DHT22;9271;48.590;8.866;2023-05-07T06:58:44;19.50;94.60
18291;DHT22;9271;48.590;8.866;2023-05-07T07:01:10;19.70;94.50
18291;DHT22;9271;48.590;8.866;2023-05-07T07:03:37;20.00;95.10
18291;DHT22;9271;48.590;8.866;2023-05-07T07:06:05;20.70;93.40
18291;DHT22;9271;48.590;8.866;2023-05-07T07:08:32;21.30;92.50
18291;DHT22;9271;48.590;8.866;2023-05-07T07:10:59;22.30;92.00
18291;DHT22;9271;48.590;8.866;2023-05-07T07:13:26;23.30;90.20
18291;DHT22;9271;48.590;8.866;2023-05-07T07:15:53;24.10;87.60
18291;DHT22;9271;48.590;8.866;2023-05-07T07:18:19;24.40;86.70
18291;DHT22;9271;48.590;8.866;2023-05-07T07:20:46;24.90;84.70
18291;DHT22;9271;48.590;8.866;2023-05-07T07:23:14;25.50;82.40
18291;DHT22;9271;48.590;8.866;2023-05-07T07:25:41;26.20;78.60
18291;DHT22;9271;48.590;8.866;2023-05-07T07:28:08;26.80;76.80
18291;DHT22;9271;48.590;8.866;2023-05-07T07:30:36;27.20;74.70
18291;DHT22;9271;48.590;8.866;2023-05-07T07:33:03;27.30;72.60
18291;DHT22;9271;48.590;8.866;2023-05-07T07:35:30;27.40;72.10
18291;DHT22;9271;48.590;8.866;2023-05-07T07:37:57;27.50;70.50
18291;DHT22;9271;48.590;8.866;2023-05-07T07:40:25;26.90;69.50
18291;DHT22;9271;48.590;8.866;2023-05-07T07:42:53;25.60;71.40
18291;DHT22;9271;48.590;8.866;2023-05-07T07:45:20;24.50;74.20
18291;DHT22;9271;48.590;8.866;2023-05-07T07:47:47;24.40;77.90
18291;DHT22;9271;48.590;8.866;2023-05-07T07:50:14;25.00;76.70
18291;DHT22;9271;48.590;8.866;2023-05-07T07:52:40;26.50;73.30
18291;DHT22;9271;48.590;8.866;2023-05-07T07:55:08;28.50;68.60
18291;DHT22;9271;48.590;8.866;2023-05-07T07:57:36;29.60;63.60
18291;DHT22;9271;48.590;8.866;2023-05-07T08:00:04;30.40;59.00
18291;DHT22;9271;48.590;8.866;2023-05-07T08:02:32;32.10;54.30
18291;DHT22;9271;48.590;8.866;2023-05-07T08:04:59;33.30;51.80
18291;DHT22;9271;48.590;8.866;2023-05-07T08:07:26;34.60;49.50
18291;DHT22;9271;48.590;8.866;2023-05-07T08:09:52;35.20;47.30
18291;DHT22;9271;48.590;8.866;2023-05-07T08:12:19;35.00;46.80
18291;DHT22;9271;48.590;8.866;2023-05-07T08:14:47;34.60;46.30
18291;DHT22;9271;48.590;8.866;2023-05-07T08:17:14;33.40;47.50
18291;DHT22;9271;48.590;8.866;2023-05-07T08:19:41;32.60;49.00
18291;DHT22;9271;48.590;8.866;2023-05-07T08:22:08;31.60;52.60
18291;DHT22;9271;48.590;8.866;2023-05-07T08:24:35;30.10;51.50
18291;DHT22;9271;48.590;8.866;2023-05-07T08:27:02;29.50;53.30
18291;DHT22;9271;48.590;8.866;2023-05-07T08:29:29;30.10;53.70
18291;DHT22;9271;48.590;8.866;2023-05-07T08:31:57;31.10;50.50
18291;DHT22;9271;48.590;8.866;2023-05-07T08:34:24;30.50;51.20
18291;DHT22;9271;48.590;8.866;2023-05-07T08:36:51;30.20;52.80
18291;DHT22;9271;48.590;8.866;2023-05-07T08:39:17;30.40;50.20
18291;DHT22;9271;48.590;8.866;2023-05-07T08:41:44;31.40;50.20
18291;DHT22;9271;48.590;8.866;2023-05-07T08:44:13;33.40;48.40
18291;DHT22;9271;48.590;8.866;2023-05-07T08:46:41;34.80;44.60
18291;DHT22;9271;48.590;8.866;2023-05-07T08:49:10;34.50;43.10
18291;DHT22;9271;48.590;8.866;2023-05-07T08:51:37;33.20;45.40
18291;DHT22;9271;48.590;8.866;2023-05-07T08:54:04;32.10;46.50
18291;DHT22;9271;48.590;8.866;2023-05-07T08:56:32;32.00;50.00
18291;DHT22;9271;48.590;8.866;2023-05-07T08:58:59;33.70;47.40
18291;DHT22;9271;48.590;8.866;2023-05-07T09:01:26;34.20;46.30
18291;DHT22;9271;48.590;8.866;2023-05-07T09:03:53;34.20;45.80
18291;DHT22;9271;48.590;8.866;2023-05-07T09:06:21;35.20;44.20
18291;DHT22;9271;48.590;8.866;2023-05-07T09:08:49;36.40;42.50
18291;DHT22;9271;48.590;8.866;2023-05-07T09:11:19;37.50;40.40
18291;DHT22;9271;48.590;8.866;2023-05-07T09:13:47;36.10;40.30
18291;DHT22;9271;48.590;8.866;2023-05-07T09:16:14;35.30;41.10
18291;DHT22;9271;48.590;8.866;2023-05-07T09:18:41;32.80;45.80
18291;DHT22;9271;48.590;8.866;2023-05-07T09:21:10;34.60;42.80
18291;DHT22;9271;48.590;8.866;2023-05-07T09:23:38;36.00;40.00
18291;DHT22;9271;48.590;8.866;2023-05-07T09:26:06;37.50;40.40
18291;DHT22;9271;48.590;8.866;2023-05-07T09:28:38;38.30;38.10
18291;DHT22;9271;48.590;8.866;2023-05-07T09:31:05;39.00;38.60
18291;DHT22;9271;48.590;8.866;2023-05-07T09:33:32;39.30;36.00
18291;DHT22;9271;48.590;8.866;2023-05-07T09:36:02;39.10;36.10
18291;DHT22;9271;48.590;8.866;2023-05-07T09:38:28;39.20;35.00
18291;DHT22;9271;48.590;8.866;2023-05-07T09:41:03;40.50;35.60
18291;DHT22;9271;48.590;8.866;2023-05-07T09:43:34;41.60;32.40
18291;DHT22;9271;48.590;8.866;2023-05-07T09:46:03;41.50;33.10
18291;DHT22;9271;48.590;8.866;2023-05-07T09:48:32;41.80;31.50
18291;DHT22;9271;48.590;8.866;2023-05-07T09:51:02;40.50;32.50
18291;DHT22;9271;48.590;8.866;2023-05-07T09:53:29;38.60;33.80
18291;DHT22;9271;48.590;8.866;2023-05-07T09:55:57;38.60;34.90
18291;DHT22;9271;48.590;8.866;2023-05-07T09:58:26;40.20;34.30
18291;DHT22;9271;48.590;8.866;2023-05-07T10:00:54;40.80;32.40
18291;DHT22;9271;48.590;8.866;2023-05-07T10:03:24;40.00;33.20
18291;DHT22;9271;48.590;8.866;2023-05-07T10:05:53;41.00;30.70
18291;DHT22;9271;48.590;8.866;2023-05-07T10:08:20;40.30;32.10
18291;DHT22;9271;48.590;8.866;2023-05-07T10:10:49;38.60;32.70
18291;DHT22;9271;48.590;8.866;2023-05-07T10:13:17;37.80;33.80
18291;DHT22;9271;48.590;8.866;2023-05-07T10:15:45;38.40;34.20
18291;DHT22;9271;48.590;8.866;2023-05-07T10:18:12;39.90;31.10
18291;DHT22;9271;48.590;8.866;2023-05-07T10:20:40;40.30;32.30
18291;DHT22;9271;48.590;8.866;2023-05-07T10:23:13;40.70;30.90
18291;DHT22;9271;48.590;8.866;2023-05-07T10:25:41;40.90;31.40
18291;DHT22;9271;48.590;8.866;2023-05-07T10:28:09;41.20;30.50
18291;DHT22;9271;48.590;8.866;2023-05-07T10:30:46;41.40;30.70
18291;DHT22;9271;48.590;8.866;2023-05-07T10:33:20;40.90;31.80
18291;DHT22;9271;48.590;8.866;2023-05-07T10:35:48;42.10;31.30
18291;DHT22;9271;48.590;8.866;2023-05-07T10:38:15;42.90;29.70
18291;DHT22;9271;48.590;8.866;2023-05-07T10:40:43;42.90;28.60
18291;DHT22;9271;48.590;8.866;2023-05-07T10:43:09;42.80;28.90
18291;DHT22;9271;48.590;8.866;2023-05-07T10:45:36;42.80;28.70
18291;DHT22;9271;48.590;8.866;2023-05-07T10:48:07;43.30;27.70
18291;DHT22;9271;48.590;8.866;2023-05-07T10:50:36;43.60;27.60
18291;DHT22;9271;48.590;8.866;2023-05-07T10:53:25;43.30;27.80
18291;DHT22;9271;48.590;8.866;2023-05-07T10:56:25;43.00;26.70
18291;DHT22;9271;48.590;8.866;2023-05-07T10:58:53;41.30;27.30
18291;DHT22;9271;48.590;8.866;2023-05-07T11:01:50;40.40;28.00
18291;DHT22;9271;48.590;8.866;2023-05-07T11:04:18;41.10;29.60
18291;DHT22;9271;48.590;8.866;2023-05-07T11:07:20;41.70;28.60
18291;DHT22;9271;48.590;8.866;2023-05-07T11:09:57;42.70;27.40
18291;DHT22;9271;48.590;8.866;2023-05-07T11:15:40;38.80;29.60
18291;DHT22;9271;48.590;8.866;2023-05-07T11:18:12;36.50;31.50
18291;DHT22;9271;48.590;8.866;2023-05-07T11:20:49;32.20;36.40
18291;DHT22;9271;48.590;8.866;2023-05-07T11:26:44;30.80;39.70
18291;DHT22;9271;48.590;8.866;2023-05-07T11:29:12;30.40;41.20
18291;DHT22;9271;48.590;8.866;2023-05-07T11:31:40;29.70;42.50
18291;DHT22;9271;48.590;8.866;2023-05-07T11:34:06;29.00;44.10
18291;DHT22;9271;48.590;8.866;2023-05-07T11:36:34;28.10;46.00
18291;DHT22;9271;48.590;8.866;2023-05-07T11:39:00;27.20;46.90
18291;DHT22;9271;48.590;8.866;2023-05-07T11:41:34;26.80;47.90
18291;DHT22;9271;48.590;8.866;2023-05-07T11:44:02;26.60;49.70
18291;DHT22;9271;48.590;8.866;2023-05-07T11:46:29;26.00;50.50
18291;DHT22;9271;48.590;8.866;2023-05-07T11:48:56;25.80;51.00
18291;DHT22;9271;48.590;8.866;2023-05-07T11:51:24;26.10;51.70
18291;DHT22;9271;48.590;8.866;2023-05-07T11:53:52;26.20;51.30
18291;DHT22;9271;48.590;8.866;2023-05-07T11:56:19;26.10;52.50
18291;DHT22;9271;48.590;8.866;2023-05-07T11:58:47;25.50;55.30
18291;DHT22;9271;48.590;8.866;2023-05-07T12:01:16;25.20;56.30
18291;DHT22;9271;48.590;8.866;2023-05-07T12:03:45;24.90;57.60
18291;DHT22;9271;48.590;8.866;2023-05-07T12:06:14;25.00;58.20
18291;DHT22;9271;48.590;8.866;2023-05-07T12:08:42;24.20;57.30
18291;DHT22;9271;48.590;8.866;2023-05-07T12:11:14;23.40;59.30
18291;DHT22;9271;48.590;8.866;2023-05-07T12:13:43;23.00;61.70
18291;DHT22;9271;48.590;8.866;2023-05-07T12:16:10;22.80;64.10
18291;DHT22;9271;48.590;8.866;2023-05-07T12:18:39;22.20;67.20
18291;DHT22;9271;48.590;8.866;2023-05-07T12:21:06;22.40;67.80
18291;DHT22;9271;48.590;8.866;2023-05-07T12:23:34;22.80;67.60
18291;DHT22;9271;48.590;8.866;2023-05-07T12:26:02;22.80;66.30
18291;DHT22;9271;48.590;8.866;2023-05-07T12:28:29;22.40;68.00
18291;DHT22;9271;48.590;8.866;2023-05-07T12:30:57;22.40;68.80
18291;DHT22;9271;48.590;8.866;2023-05-07T12:33:24;22.60;68.50
18291;DHT22;9271;48.590;8.866;2023-05-07T12:35:54;22.60;69.40
18291;DHT22;9271;48.590;8.866;2023-05-07T12:38:21;22.70;70.60
18291;DHT22;9271;48.590;8.866;2023-05-07T12:40:49;22.80;71.50
18291;DHT22;9271;48.590;8.866;2023-05-07T12:43:17;22.80;71.60
18291;DHT22;9271;48.590;8.866;2023-05-07T12:45:44;22.80;73.70
18291;DHT22;9271;48.590;8.866;2023-05-07T12:48:11;22.80;72.60
18291;DHT22;9271;48.590;8.866;2023-05-07T12:50:38;22.10;74.20
18291;DHT22;9271;48.590;8.866;2023-05-07T12:53:07;20.50;81.30
18291;DHT22;9271;48.590;8.866;2023-05-07T12:55:43;19.70;89.70
18291;DHT22;9271;48.590;8.866;2023-05-07T12:58:18;19.30;94.00
18291;DHT22;9271;48.590;8.866;2023-05-07T13:00:48;18.70;97.70
18291;DHT22;9271;48.590;8.866;2023-05-07T13:03:21;17.80;99.90
18291;DHT22;9271;48.590;8.866;2023-05-07T13:05:49;17.20;99.90
18291;DHT22;9271;48.590;8.866;2023-05-07T13:08:33;17.10;99.90
18291;DHT22;9271;48.590;8.866;2023-05-07T13:11:02;17.10;99.90
18291;DHT22;9271;48.590;8.866;2023-05-07T13:13:29;17.40;99.90
18291;DHT22;9271;48.590;8.866;2023-05-07T13:15:56;17.20;99.90
18291;DHT22;9271;48.590;8.866;2023-05-07T13:18:24;17.20;99.90
18291;DHT22;9271;48.590;8.866;2023-05-07T13:20:51;17.00;99.90
18291;DHT22;9271;48.590;8.866;2023-05-07T13:23:18;16.90;99.90
18291;DHT22;9271;48.590;8.866;2023-05-07T13:25:46;16.90;99.90
18291;DHT22;9271;48.590;8.866;2023-05-07T13:28:13;16.70;99.90
18291;DHT22;9271;48.590;8.866;2023-05-07T13:30:40;16.50;99.90
18291;DHT22;9271;48.590;8.866;2023-05-07T13:33:07;16.20;99.90
18291;DHT22;9271;48.590;8.866;2023-05-07T13:35:33;16.20;99.90
18291;DHT22;9271;48.590;8.866;2023-05-07T13:38:00;16.40;99.90
18291;DHT22;9271;48.590;8.866;2023-05-07T13:40:27;16.80;99.90
18291;DHT22;9271;48.590;8.866;2023-05-07T13:42:57;17.20;99.90
18291;DHT22;9271;48.590;8.866;2023-05-07T13:45:25;17.60;99.90
18291;DHT22;9271;48.590;8.866;2023-05-07T13:47:52;17.80;99.90
18291;DHT22;9271;48.590;8.866;2023-05-07T13:50:19;18.10;99.90
18291;DHT22;9271;48.590;8.866;2023-05-07T13:52:45;18.20;99.90
18291;DHT22;9271;48.590;8.866;2023-05-07T13:55:16;18.30;99.90
18291;DHT22;9271;48.590;8.866;2023-05-07T13:57:43;17.80;99.90
18291;DHT22;9271;48.590;8.866;2023-05-07T14:00:12;17.50;99.90
18291;DHT22;9271;48.590;8.866;2023-05-07T14:02:40;17.60;99.90
18291;DHT22;9271;48.590;8.866;2023-05-07T14:05:08;17.90;99.90
18291;DHT22;9271;48.590;8.866;2023-05-07T14:07:35;18.10;99.90
18291;DHT22;9271;48.590;8.866;2023-05-07T14:10:02;18.20;99.90
18291;DHT22;9271;48.590;8.866;2023-05-07T14:12:29;18.40;99.90
18291;DHT22;9271;48.590;8.866;2023-05-07T14:14:56;18.60;99.90
18291;DHT22;9271;48.590;8.866;2023-05-07T14:17:24;18.90;99.90
18291;DHT22;9271;48.590;8.866;2023-05-07T14:19:52;18.90;99.90
18291;DHT22;9271;48.590;8.866;2023-05-07T14:22:20;19.10;99.90
18291;DHT22;9271;48.590;8.866;2023-05-07T14:24:47;19.20;99.90
18291;DHT22;9271;48.590;8.866;2023-05-07T14:27:14;19.10;99.90
18291;DHT22;9271;48.590;8.866;2023-05-07T14:29:43;19.00;99.90
18291;DHT22;9271;48.590;8.866;2023-05-07T14:32:11;18.90;99.90
18291;DHT22;9271;48.590;8.866;2023-05-07T14:34:39;19.00;99.90
18291;DHT22;9271;48.590;8.866;2023-05-07T14:37:05;18.90;99.90
18291;DHT22;9271;48.590;8.866;2023-05-07T14:39:32;19.10;99.90
18291;DHT22;9271;48.590;8.866;2023-05-07T14:41:59;19.10;99.90
18291;DHT22;9271;48.590;8.866;2023-05-07T14:44:25;19.10;99.90
18291;DHT22;9271;48.590;8.866;2023-05-07T14:46:52;18.90;99.90
18291;DHT22;9271;48.590;8.866;2023-05-07T14:49:19;18.90;99.90
18291;DHT22;9271;48.590;8.866;2023-05-07T14:51:47;19.20;99.90
18291;DHT22;9271;48.590;8.866;2023-05-07T14:54:14;19.40;99.90
18291;DHT22;9271;48.590;8.866;2023-05-07T14:56:41;19.70;99.90
18291;DHT22;9271;48.590;8.866;2023-05-07T14:59:08;19.90;99.90
18291;DHT22;9271;48.590;8.866;2023-05-07T15:01:36;20.50;99.90
18291;DHT22;9271;48.590;8.866;2023-05-07T15:04:03;20.90;99.90
18291;DHT22;9271;48.590;8.866;2023-05-07T15:06:30;21.60;99.90
18291;DHT22;9271;48.590;8.866;2023-05-07T15:08:58;22.20;99.90
18291;DHT22;9271;48.590;8.866;2023-05-07T15:11:25;22.80;99.90
18291;DHT22;9271;48.590;8.866;2023-05-07T15:13:51;23.00;99.90
18291;DHT22;9271;48.590;8.866;2023-05-07T15:16:18;23.40;99.90
18291;DHT22;9271;48.590;8.866;2023-05-07T15:18:45;23.90;99.70
18291;DHT22;9271;48.590;8.866;2023-05-07T15:21:12;24.30;99.10
18291;DHT22;9271;48.590;8.866;2023-05-07T15:23:39;24.60;98.00
18291;DHT22;9271;48.590;8.866;2023-05-07T15:26:07;25.30;97.80
18291;DHT22;9271;48.590;8.866;2023-05-07T15:28:34;25.50;96.50
18291;DHT22;9271;48.590;8.866;2023-05-07T15:31:01;25.60;96.60
18291;DHT22;9271;48.590;8.866;2023-05-07T15:33:28;25.70;95.30
18291;DHT22;9271;48.590;8.866;2023-05-07T15:35:54;25.50;94.90
18291;DHT22;9271;48.590;8.866;2023-05-07T15:38:24;25.30;94.60
18291;DHT22;9271;48.590;8.866;2023-05-07T15:40:50;25.10;94.10
18291;DHT22;9271;48.590;8.866;2023-05-07T15:43:18;25.10;95.00
18291;DHT22;9271;48.590;8.866;2023-05-07T15:45:46;24.80;95.30
18291;DHT22;9271;48.590;8.866;2023-05-07T15:48:12;24.80;95.90
18291;DHT22;9271;48.590;8.866;2023-05-07T15:50:39;24.20;95.80
18291;DHT22;9271;48.590;8.866;2023-05-07T15:53:07;24.20;95.50
18291;DHT22;9271;48.590;8.866;2023-05-07T15:55:34;24.00;94.60